Rechercher aéroport 
image banner adimage banner adimage banner ad
image banner ad

PS35 - Dutch Country Egg Farms

Situé à Fredericksburg, United States

ICAO - PS35, IATA -

Données fournies par Airmate  

Information générale

Coordonnées: N40°27'29" W76°27'29"
Élévation : 550 feet MSL.
Variation magnétique : -10° East
Voir autres Aéroports à Pennsylvania

Données opérationnelles

Special qualification required
Heure actuelle UTC:
Heure actuelle locale:
METAR: KMUI 152156Z 32003KT 10SM VCSH SCT049 BKN090 BKN110 23/13 A2980 RMK AO2A SLP092 T02340127
TAF: TAF AMD KMUI 152033Z 1520/1701 30009KT 9999 FEW035 BKN050 OVC075 QNH2977INS TEMPO 1520/1521 8000 -SHRA BECMG 1600/1601 VRB06KT 9999 FEW035 BKN050 QNH2980INS BECMG 1609/1610 34012KT 9999 SKC QNH2993INS TX24/1522Z TN13/1610Z LAST NO AMDS AFT 1605 NEXT 1611
Voir NOTAMs / SUP AIP / TFR affectant cet aéroport [VIEW]
Fréquences de communication: [VIEW]

Pistes:

Identifiant RWYQFULongueur (ft)Largeur (ft)SurfaceLDA (ft)
092400200GRASS
272400200GRASS

Coordonnées de l'aéroport

Adresse: Fredericksburg United States

Vue satellite de PS35